sensor_id;sensor_type;location;lat;lon;timestamp;P1;durP1;ratioP1;P2;durP2;ratioP2
23470;SDS011;11908;50.806;4.424;2023-04-15T00:00:36;12.13;;;3.80;;
23470;SDS011;11908;50.806;4.424;2023-04-15T00:03:02;7.57;;;3.78;;
23470;SDS011;11908;50.806;4.424;2023-04-15T00:05:29;7.55;;;3.25;;
23470;SDS011;11908;50.806;4.424;2023-04-15T00:07:55;6.55;;;2.95;;
23470;SDS011;11908;50.806;4.424;2023-04-15T00:10:23;4.18;;;3.35;;
23470;SDS011;11908;50.806;4.424;2023-04-15T00:12:49;4.72;;;3.00;;
23470;SDS011;11908;50.806;4.424;2023-04-15T00:15:15;7.63;;;3.65;;
23470;SDS011;11908;50.806;4.424;2023-04-15T00:17:41;5.82;;;3.47;;
23470;SDS011;11908;50.806;4.424;2023-04-15T00:20:07;6.93;;;3.33;;
23470;SDS011;11908;50.806;4.424;2023-04-15T00:22:33;9.00;;;3.17;;
23470;SDS011;11908;50.806;4.424;2023-04-15T00:24:58;5.72;;;2.95;;
23470;SDS011;11908;50.806;4.424;2023-04-15T00:27:24;5.47;;;3.13;;
23470;SDS011;11908;50.806;4.424;2023-04-15T00:29:50;4.35;;;2.70;;
23470;SDS011;11908;50.806;4.424;2023-04-15T00:32:15;3.58;;;2.60;;
23470;SDS011;11908;50.806;4.424;2023-04-15T00:34:41;4.40;;;2.90;;
23470;SDS011;11908;50.806;4.424;2023-04-15T00:37:08;3.75;;;2.88;;
23470;SDS011;11908;50.806;4.424;2023-04-15T00:39:34;7.93;;;2.60;;
23470;SDS011;11908;50.806;4.424;2023-04-15T00:42:00;5.70;;;2.83;;
23470;SDS011;11908;50.806;4.424;2023-04-15T00:44:28;5.30;;;2.47;;
23470;SDS011;11908;50.806;4.424;2023-04-15T00:46:53;5.38;;;2.50;;
23470;SDS011;11908;50.806;4.424;2023-04-15T00:49:19;5.28;;;2.35;;
23470;SDS011;11908;50.806;4.424;2023-04-15T00:51:45;3.40;;;2.38;;
23470;SDS011;11908;50.806;4.424;2023-04-15T00:54:11;5.28;;;2.65;;
23470;SDS011;11908;50.806;4.424;2023-04-15T00:56:37;5.95;;;2.60;;
23470;SDS011;11908;50.806;4.424;2023-04-15T00:59:04;3.72;;;2.10;;
23470;SDS011;11908;50.806;4.424;2023-04-15T01:01:32;4.97;;;2.30;;
23470;SDS011;11908;50.806;4.424;2023-04-15T01:03:59;3.38;;;2.30;;
23470;SDS011;11908;50.806;4.424;2023-04-15T01:06:25;9.88;;;2.88;;
23470;SDS011;11908;50.806;4.424;2023-04-15T01:08:52;5.22;;;2.40;;
23470;SDS011;11908;50.806;4.424;2023-04-15T01:11:21;6.63;;;2.58;;
23470;SDS011;11908;50.806;4.424;2023-04-15T01:13:48;4.72;;;2.45;;
23470;SDS011;11908;50.806;4.424;2023-04-15T01:16:15;5.68;;;2.35;;
23470;SDS011;11908;50.806;4.424;2023-04-15T01:18:41;6.80;;;3.20;;
23470;SDS011;11908;50.806;4.424;2023-04-15T01:21:07;6.22;;;2.75;;
23470;SDS011;11908;50.806;4.424;2023-04-15T01:23:34;3.47;;;2.58;;
23470;SDS011;11908;50.806;4.424;2023-04-15T01:26:02;4.63;;;2.72;;
23470;SDS011;11908;50.806;4.424;2023-04-15T01:28:29;4.13;;;2.33;;
23470;SDS011;11908;50.806;4.424;2023-04-15T01:31:08;4.35;;;3.05;;
23470;SDS011;11908;50.806;4.424;2023-04-15T01:33:41;6.80;;;2.77;;
23470;SDS011;11908;50.806;4.424;2023-04-15T01:36:07;4.30;;;2.70;;
23470;SDS011;11908;50.806;4.424;2023-04-15T01:38:34;4.95;;;3.05;;
23470;SDS011;11908;50.806;4.424;2023-04-15T01:41:00;2.60;;;2.40;;
23470;SDS011;11908;50.806;4.424;2023-04-15T01:43:28;2.28;;;2.08;;
23470;SDS011;11908;50.806;4.424;2023-04-15T01:45:54;6.13;;;2.72;;
23470;SDS011;11908;50.806;4.424;2023-04-15T01:48:20;3.58;;;2.78;;
23470;SDS011;11908;50.806;4.424;2023-04-15T01:50:47;5.80;;;2.92;;
23470;SDS011;11908;50.806;4.424;2023-04-15T01:53:13;6.75;;;3.38;;
23470;SDS011;11908;50.806;4.424;2023-04-15T01:55:39;4.93;;;3.13;;
23470;SDS011;11908;50.806;4.424;2023-04-15T01:58:05;4.32;;;2.38;;
23470;SDS011;11908;50.806;4.424;2023-04-15T02:00:31;4.25;;;2.30;;
23470;SDS011;11908;50.806;4.424;2023-04-15T02:02:57;5.95;;;2.70;;
23470;SDS011;11908;50.806;4.424;2023-04-15T02:05:23;4.13;;;2.65;;
23470;SDS011;11908;50.806;4.424;2023-04-15T02:07:49;5.15;;;3.08;;
23470;SDS011;11908;50.806;4.424;2023-04-15T02:10:15;6.57;;;3.45;;
23470;SDS011;11908;50.806;4.424;2023-04-15T02:12:41;5.40;;;2.90;;
23470;SDS011;11908;50.806;4.424;2023-04-15T02:15:07;7.55;;;2.90;;
23470;SDS011;11908;50.806;4.424;2023-04-15T02:17:34;4.28;;;2.88;;
23470;SDS011;11908;50.806;4.424;2023-04-15T02:20:00;4.32;;;3.08;;
23470;SDS011;11908;50.806;4.424;2023-04-15T02:22:26;4.28;;;3.10;;
23470;SDS011;11908;50.806;4.424;2023-04-15T02:24:51;5.30;;;2.92;;
23470;SDS011;11908;50.806;4.424;2023-04-15T02:27:18;5.20;;;3.20;;
23470;SDS011;11908;50.806;4.424;2023-04-15T02:29:44;7.15;;;3.30;;
23470;SDS011;11908;50.806;4.424;2023-04-15T02:32:10;4.55;;;3.10;;
23470;SDS011;11908;50.806;4.424;2023-04-15T02:34:37;6.38;;;3.20;;
23470;SDS011;11908;50.806;4.424;2023-04-15T02:37:05;5.55;;;3.05;;
23470;SDS011;11908;50.806;4.424;2023-04-15T02:39:31;3.42;;;3.10;;
23470;SDS011;11908;50.806;4.424;2023-04-15T02:41:57;5.97;;;2.90;;
23470;SDS011;11908;50.806;4.424;2023-04-15T02:44:24;5.72;;;2.75;;
23470;SDS011;11908;50.806;4.424;2023-04-15T02:46:51;6.57;;;3.38;;
23470;SDS011;11908;50.806;4.424;2023-04-15T02:49:19;4.85;;;3.10;;
23470;SDS011;11908;50.806;4.424;2023-04-15T02:51:45;5.50;;;3.40;;
23470;SDS011;11908;50.806;4.424;2023-04-15T02:54:20;4.93;;;3.30;;
23470;SDS011;11908;50.806;4.424;2023-04-15T02:56:47;5.00;;;3.40;;
23470;SDS011;11908;50.806;4.424;2023-04-15T02:59:12;5.90;;;3.40;;
23470;SDS011;11908;50.806;4.424;2023-04-15T03:01:38;6.32;;;3.08;;
23470;SDS011;11908;50.806;4.424;2023-04-15T03:04:04;4.68;;;3.60;;
23470;SDS011;11908;50.806;4.424;2023-04-15T03:06:31;4.20;;;3.40;;
23470;SDS011;11908;50.806;4.424;2023-04-15T03:08:57;4.47;;;3.30;;
23470;SDS011;11908;50.806;4.424;2023-04-15T03:11:24;4.45;;;3.42;;
23470;SDS011;11908;50.806;4.424;2023-04-15T03:13:51;4.78;;;3.38;;
23470;SDS011;11908;50.806;4.424;2023-04-15T03:16:16;4.82;;;3.42;;
23470;SDS011;11908;50.806;4.424;2023-04-15T03:18:42;4.47;;;3.60;;
23470;SDS011;11908;50.806;4.424;2023-04-15T03:21:08;5.07;;;3.78;;
23470;SDS011;11908;50.806;4.424;2023-04-15T03:23:33;5.50;;;3.67;;
23470;SDS011;11908;50.806;4.424;2023-04-15T03:26:03;9.40;;;4.68;;
23470;SDS011;11908;50.806;4.424;2023-04-15T03:28:29;12.65;;;6.75;;
23470;SDS011;11908;50.806;4.424;2023-04-15T03:30:55;13.05;;;6.35;;
23470;SDS011;11908;50.806;4.424;2023-04-15T03:33:21;13.05;;;7.07;;
23470;SDS011;11908;50.806;4.424;2023-04-15T03:35:46;14.80;;;6.95;;
23470;SDS011;11908;50.806;4.424;2023-04-15T03:38:12;14.73;;;7.15;;
23470;SDS011;11908;50.806;4.424;2023-04-15T03:40:39;18.10;;;8.80;;
23470;SDS011;11908;50.806;4.424;2023-04-15T03:43:05;16.58;;;8.45;;
23470;SDS011;11908;50.806;4.424;2023-04-15T03:45:31;17.67;;;9.43;;
23470;SDS011;11908;50.806;4.424;2023-04-15T03:47:57;21.77;;;9.80;;
23470;SDS011;11908;50.806;4.424;2023-04-15T03:50:23;23.83;;;11.18;;
23470;SDS011;11908;50.806;4.424;2023-04-15T03:52:48;26.38;;;12.23;;
23470;SDS011;11908;50.806;4.424;2023-04-15T03:55:14;23.45;;;11.45;;
23470;SDS011;11908;50.806;4.424;2023-04-15T03:57:40;19.80;;;10.95;;
23470;SDS011;11908;50.806;4.424;2023-04-15T04:00:06;22.80;;;12.23;;
23470;SDS011;11908;50.806;4.424;2023-04-15T04:02:33;21.52;;;10.90;;
23470;SDS011;11908;50.806;4.424;2023-04-15T04:04:59;20.65;;;11.15;;
23470;SDS011;11908;50.806;4.424;2023-04-15T04:07:25;21.58;;;12.35;;
23470;SDS011;11908;50.806;4.424;2023-04-15T04:09:51;22.30;;;11.25;;
23470;SDS011;11908;50.806;4.424;2023-04-15T04:12:16;21.10;;;11.35;;
23470;SDS011;11908;50.806;4.424;2023-04-15T04:14:42;15.85;;;9.65;;
23470;SDS011;11908;50.806;4.424;2023-04-15T04:17:08;20.33;;;9.20;;
23470;SDS011;11908;50.806;4.424;2023-04-15T04:19:33;17.45;;;10.45;;
23470;SDS011;11908;50.806;4.424;2023-04-15T04:21:59;22.45;;;10.52;;
23470;SDS011;11908;50.806;4.424;2023-04-15T04:24:25;19.65;;;10.18;;
23470;SDS011;11908;50.806;4.424;2023-04-15T04:26:51;18.30;;;10.07;;
23470;SDS011;11908;50.806;4.424;2023-04-15T04:29:17;17.48;;;10.50;;
23470;SDS011;11908;50.806;4.424;2023-04-15T04:31:42;14.88;;;9.38;;
23470;SDS011;11908;50.806;4.424;2023-04-15T04:34:08;16.52;;;9.00;;
23470;SDS011;11908;50.806;4.424;2023-04-15T04:36:34;12.88;;;8.40;;
23470;SDS011;11908;50.806;4.424;2023-04-15T04:38:59;14.13;;;8.90;;
23470;SDS011;11908;50.806;4.424;2023-04-15T04:41:25;13.18;;;8.88;;
23470;SDS011;11908;50.806;4.424;2023-04-15T04:43:51;16.52;;;8.63;;
23470;SDS011;11908;50.806;4.424;2023-04-15T04:46:17;15.23;;;8.18;;
23470;SDS011;11908;50.806;4.424;2023-04-15T04:48:42;13.40;;;8.73;;
23470;SDS011;11908;50.806;4.424;2023-04-15T04:51:08;12.13;;;8.07;;
23470;SDS011;11908;50.806;4.424;2023-04-15T04:53:34;11.60;;;7.80;;
23470;SDS011;11908;50.806;4.424;2023-04-15T04:56:01;13.02;;;8.43;;
23470;SDS011;11908;50.806;4.424;2023-04-15T04:58:27;16.38;;;9.10;;
23470;SDS011;11908;50.806;4.424;2023-04-15T05:00:53;12.63;;;8.07;;
23470;SDS011;11908;50.806;4.424;2023-04-15T05:03:18;16.95;;;9.50;;
23470;SDS011;11908;50.806;4.424;2023-04-15T05:05:45;11.82;;;8.13;;
23470;SDS011;11908;50.806;4.424;2023-04-15T05:08:13;13.10;;;7.50;;
23470;SDS011;11908;50.806;4.424;2023-04-15T05:10:39;16.20;;;8.40;;
23470;SDS011;11908;50.806;4.424;2023-04-15T05:13:04;13.30;;;8.32;;
23470;SDS011;11908;50.806;4.424;2023-04-15T05:15:30;13.25;;;8.35;;
23470;SDS011;11908;50.806;4.424;2023-04-15T05:17:57;13.35;;;8.55;;
23470;SDS011;11908;50.806;4.424;2023-04-15T05:20:22;15.43;;;8.00;;
23470;SDS011;11908;50.806;4.424;2023-04-15T05:22:48;12.15;;;8.52;;
23470;SDS011;11908;50.806;4.424;2023-04-15T05:25:13;11.88;;;7.70;;
23470;SDS011;11908;50.806;4.424;2023-04-15T05:27:40;11.93;;;8.10;;
23470;SDS011;11908;50.806;4.424;2023-04-15T05:30:06;10.70;;;7.68;;
23470;SDS011;11908;50.806;4.424;2023-04-15T05:32:32;13.93;;;7.80;;
23470;SDS011;11908;50.806;4.424;2023-04-15T05:34:58;20.55;;;8.93;;
23470;SDS011;11908;50.806;4.424;2023-04-15T05:37:24;15.35;;;8.27;;
23470;SDS011;11908;50.806;4.424;2023-04-15T05:39:50;12.07;;;7.63;;
23470;SDS011;11908;50.806;4.424;2023-04-15T05:42:16;11.75;;;7.85;;
23470;SDS011;11908;50.806;4.424;2023-04-15T05:44:41;12.70;;;8.27;;
23470;SDS011;11908;50.806;4.424;2023-04-15T05:47:07;17.00;;;8.82;;
23470;SDS011;11908;50.806;4.424;2023-04-15T05:49:34;14.00;;;8.05;;
23470;SDS011;11908;50.806;4.424;2023-04-15T05:52:00;14.02;;;8.52;;
23470;SDS011;11908;50.806;4.424;2023-04-15T05:54:26;16.02;;;8.48;;
23470;SDS011;11908;50.806;4.424;2023-04-15T05:56:52;13.40;;;8.55;;
23470;SDS011;11908;50.806;4.424;2023-04-15T05:59:18;13.70;;;8.48;;
23470;SDS011;11908;50.806;4.424;2023-04-15T06:01:43;13.52;;;8.52;;
23470;SDS011;11908;50.806;4.424;2023-04-15T06:04:09;14.68;;;9.05;;
23470;SDS011;11908;50.806;4.424;2023-04-15T06:06:35;14.32;;;8.63;;
23470;SDS011;11908;50.806;4.424;2023-04-15T06:09:02;14.68;;;9.30;;
23470;SDS011;11908;50.806;4.424;2023-04-15T06:11:28;13.27;;;9.25;;
23470;SDS011;11908;50.806;4.424;2023-04-15T06:13:53;13.95;;;8.98;;
23470;SDS011;11908;50.806;4.424;2023-04-15T06:16:19;11.80;;;9.18;;
23470;SDS011;11908;50.806;4.424;2023-04-15T06:18:45;20.05;;;9.90;;
23470;SDS011;11908;50.806;4.424;2023-04-15T06:21:10;13.10;;;9.13;;
23470;SDS011;11908;50.806;4.424;2023-04-15T06:23:36;14.88;;;9.25;;
23470;SDS011;11908;50.806;4.424;2023-04-15T06:26:02;12.20;;;8.98;;
23470;SDS011;11908;50.806;4.424;2023-04-15T06:28:28;14.88;;;8.68;;
23470;SDS011;11908;50.806;4.424;2023-04-15T06:30:53;13.45;;;7.93;;
23470;SDS011;11908;50.806;4.424;2023-04-15T06:33:19;11.65;;;7.63;;
23470;SDS011;11908;50.806;4.424;2023-04-15T06:35:45;17.90;;;7.85;;
23470;SDS011;11908;50.806;4.424;2023-04-15T06:38:11;11.18;;;7.45;;
23470;SDS011;11908;50.806;4.424;2023-04-15T06:40:38;15.93;;;7.95;;
23470;SDS011;11908;50.806;4.424;2023-04-15T06:43:04;12.20;;;7.60;;
23470;SDS011;11908;50.806;4.424;2023-04-15T06:45:30;11.63;;;8.10;;
23470;SDS011;11908;50.806;4.424;2023-04-15T06:47:56;11.13;;;7.55;;
23470;SDS011;11908;50.806;4.424;2023-04-15T06:50:22;21.08;;;8.00;;
23470;SDS011;11908;50.806;4.424;2023-04-15T06:52:47;12.10;;;7.25;;
23470;SDS011;11908;50.806;4.424;2023-04-15T06:55:13;9.80;;;6.70;;
23470;SDS011;11908;50.806;4.424;2023-04-15T06:57:39;12.10;;;7.13;;
23470;SDS011;11908;50.806;4.424;2023-04-15T07:00:05;11.32;;;6.57;;
23470;SDS011;11908;50.806;4.424;2023-04-15T07:02:31;12.32;;;6.53;;
23470;SDS011;11908;50.806;4.424;2023-04-15T07:04:57;14.07;;;7.25;;
23470;SDS011;11908;50.806;4.424;2023-04-15T07:07:23;10.68;;;6.63;;
23470;SDS011;11908;50.806;4.424;2023-04-15T07:09:49;11.20;;;6.35;;
23470;SDS011;11908;50.806;4.424;2023-04-15T07:12:17;15.20;;;6.55;;
23470;SDS011;11908;50.806;4.424;2023-04-15T07:14:43;10.93;;;6.38;;
23470;SDS011;11908;50.806;4.424;2023-04-15T07:17:09;12.15;;;6.53;;
23470;SDS011;11908;50.806;4.424;2023-04-15T07:19:35;10.70;;;5.53;;
23470;SDS011;11908;50.806;4.424;2023-04-15T07:22:01;10.25;;;5.85;;
23470;SDS011;11908;50.806;4.424;2023-04-15T07:24:26;13.80;;;6.63;;
23470;SDS011;11908;50.806;4.424;2023-04-15T07:26:55;10.50;;;5.40;;
23470;SDS011;11908;50.806;4.424;2023-04-15T07:29:22;11.73;;;5.30;;
23470;SDS011;11908;50.806;4.424;2023-04-15T07:31:48;9.85;;;5.65;;
23470;SDS011;11908;50.806;4.424;2023-04-15T07:34:13;12.32;;;6.15;;
23470;SDS011;11908;50.806;4.424;2023-04-15T07:36:40;11.52;;;5.88;;
23470;SDS011;11908;50.806;4.424;2023-04-15T07:39:06;9.60;;;5.20;;
23470;SDS011;11908;50.806;4.424;2023-04-15T07:41:32;9.60;;;5.68;;
23470;SDS011;11908;50.806;4.424;2023-04-15T07:43:57;10.73;;;6.03;;
23470;SDS011;11908;50.806;4.424;2023-04-15T07:46:23;9.88;;;6.32;;
23470;SDS011;11908;50.806;4.424;2023-04-15T07:48:51;9.88;;;6.57;;
23470;SDS011;11908;50.806;4.424;2023-04-15T07:51:17;12.27;;;5.72;;
23470;SDS011;11908;50.806;4.424;2023-04-15T07:53:43;12.07;;;5.47;;
23470;SDS011;11908;50.806;4.424;2023-04-15T07:56:09;10.30;;;5.88;;
23470;SDS011;11908;50.806;4.424;2023-04-15T07:58:35;10.70;;;6.63;;
23470;SDS011;11908;50.806;4.424;2023-04-15T08:01:01;11.43;;;6.30;;
23470;SDS011;11908;50.806;4.424;2023-04-15T08:03:28;10.73;;;6.60;;
23470;SDS011;11908;50.806;4.424;2023-04-15T08:05:54;13.80;;;7.05;;
23470;SDS011;11908;50.806;4.424;2023-04-15T08:08:19;13.43;;;6.60;;
23470;SDS011;11908;50.806;4.424;2023-04-15T08:10:46;12.32;;;6.85;;
23470;SDS011;11908;50.806;4.424;2023-04-15T08:13:11;9.95;;;6.72;;
23470;SDS011;11908;50.806;4.424;2023-04-15T08:15:37;10.93;;;6.13;;
23470;SDS011;11908;50.806;4.424;2023-04-15T08:18:03;11.68;;;6.93;;
23470;SDS011;11908;50.806;4.424;2023-04-15T08:20:28;9.60;;;6.20;;
23470;SDS011;11908;50.806;4.424;2023-04-15T08:22:54;12.52;;;6.70;;
23470;SDS011;11908;50.806;4.424;2023-04-15T08:25:20;14.77;;;7.43;;
23470;SDS011;11908;50.806;4.424;2023-04-15T08:27:46;14.95;;;7.47;;
23470;SDS011;11908;50.806;4.424;2023-04-15T08:30:12;13.90;;;7.63;;
23470;SDS011;11908;50.806;4.424;2023-04-15T08:32:38;11.73;;;6.57;;
23470;SDS011;11908;50.806;4.424;2023-04-15T08:35:03;12.05;;;6.80;;
23470;SDS011;11908;50.806;4.424;2023-04-15T08:37:29;9.77;;;7.30;;
23470;SDS011;11908;50.806;4.424;2023-04-15T08:39:55;14.30;;;7.88;;
23470;SDS011;11908;50.806;4.424;2023-04-15T08:42:30;17.55;;;8.68;;
23470;SDS011;11908;50.806;4.424;2023-04-15T08:44:58;12.30;;;7.57;;
23470;SDS011;11908;50.806;4.424;2023-04-15T08:47:25;14.98;;;8.23;;
23470;SDS011;11908;50.806;4.424;2023-04-15T08:49:56;18.58;;;8.40;;
23470;SDS011;11908;50.806;4.424;2023-04-15T08:52:23;9.63;;;7.65;;
23470;SDS011;11908;50.806;4.424;2023-04-15T08:54:50;11.80;;;8.43;;
23470;SDS011;11908;50.806;4.424;2023-04-15T08:57:22;14.00;;;8.48;;
23470;SDS011;11908;50.806;4.424;2023-04-15T08:59:52;12.27;;;8.52;;
23470;SDS011;11908;50.806;4.424;2023-04-15T09:02:22;13.60;;;8.13;;
23470;SDS011;11908;50.806;4.424;2023-04-15T09:04:50;14.75;;;8.13;;
23470;SDS011;11908;50.806;4.424;2023-04-15T09:07:15;12.40;;;8.40;;
23470;SDS011;11908;50.806;4.424;2023-04-15T09:09:41;13.73;;;7.85;;
23470;SDS011;11908;50.806;4.424;2023-04-15T09:12:07;12.05;;;7.88;;
23470;SDS011;11908;50.806;4.424;2023-04-15T09:14:35;13.50;;;8.27;;
23470;SDS011;11908;50.806;4.424;2023-04-15T09:17:04;11.60;;;7.80;;
23470;SDS011;11908;50.806;4.424;2023-04-15T09:19:30;13.13;;;7.85;;
23470;SDS011;11908;50.806;4.424;2023-04-15T09:21:58;13.48;;;7.70;;
23470;SDS011;11908;50.806;4.424;2023-04-15T09:24:24;11.80;;;7.55;;
23470;SDS011;11908;50.806;4.424;2023-04-15T09:26:51;11.90;;;7.43;;
23470;SDS011;11908;50.806;4.424;2023-04-15T09:29:23;9.68;;;6.53;;
23470;SDS011;11908;50.806;4.424;2023-04-15T09:31:49;8.48;;;5.82;;
23470;SDS011;11908;50.806;4.424;2023-04-15T09:34:15;10.38;;;5.95;;
23470;SDS011;11908;50.806;4.424;2023-04-15T09:39:10;6.20;;;5.03;;
23470;SDS011;11908;50.806;4.424;2023-04-15T09:41:36;10.10;;;5.70;;
23470;SDS011;11908;50.806;4.424;2023-04-15T09:44:02;10.75;;;5.45;;
23470;SDS011;11908;50.806;4.424;2023-04-15T09:46:44;6.20;;;4.97;;
23470;SDS011;11908;50.806;4.424;2023-04-15T09:49:10;8.02;;;5.35;;
23470;SDS011;11908;50.806;4.424;2023-04-15T09:51:37;10.27;;;5.15;;
23470;SDS011;11908;50.806;4.424;2023-04-15T09:54:03;8.50;;;6.22;;
23470;SDS011;11908;50.806;4.424;2023-04-15T09:56:35;10.60;;;6.03;;
23470;SDS011;11908;50.806;4.424;2023-04-15T09:59:03;8.90;;;5.80;;
23470;SDS011;11908;50.806;4.424;2023-04-15T10:01:29;8.18;;;6.18;;
23470;SDS011;11908;50.806;4.424;2023-04-15T10:03:55;11.77;;;6.25;;
23470;SDS011;11908;50.806;4.424;2023-04-15T10:06:22;9.07;;;6.07;;
23470;SDS011;11908;50.806;4.424;2023-04-15T10:08:53;11.65;;;6.60;;
23470;SDS011;11908;50.806;4.424;2023-04-15T10:11:19;9.65;;;5.50;;
23470;SDS011;11908;50.806;4.424;2023-04-15T10:13:48;5.97;;;5.28;;
23470;SDS011;11908;50.806;4.424;2023-04-15T10:16:15;8.70;;;5.85;;
23470;SDS011;11908;50.806;4.424;2023-04-15T10:18:43;7.60;;;5.10;;
23470;SDS011;11908;50.806;4.424;2023-04-15T10:21:17;9.63;;;5.28;;
23470;SDS011;11908;50.806;4.424;2023-04-15T10:23:46;5.95;;;4.25;;
23470;SDS011;11908;50.806;4.424;2023-04-15T10:26:12;7.10;;;5.05;;
23470;SDS011;11908;50.806;4.424;2023-04-15T10:28:40;7.97;;;5.28;;
23470;SDS011;11908;50.806;4.424;2023-04-15T10:31:06;7.35;;;4.53;;
23470;SDS011;11908;50.806;4.424;2023-04-15T10:33:32;9.25;;;4.45;;
23470;SDS011;11908;50.806;4.424;2023-04-15T10:35:59;7.28;;;4.25;;
23470;SDS011;11908;50.806;4.424;2023-04-15T10:38:35;6.63;;;3.05;;
23470;SDS011;11908;50.806;4.424;2023-04-15T10:41:24;5.95;;;3.63;;
23470;SDS011;11908;50.806;4.424;2023-04-15T10:46:35;4.60;;;3.47;;
23470;SDS011;11908;50.806;4.424;2023-04-15T10:51:41;7.88;;;3.25;;
23470;SDS011;11908;50.806;4.424;2023-04-15T10:54:53;5.55;;;3.13;;
23470;SDS011;11908;50.806;4.424;2023-04-15T10:59:29;6.90;;;3.63;;
23470;SDS011;11908;50.806;4.424;2023-04-15T11:01:56;5.72;;;3.20;;
23470;SDS011;11908;50.806;4.424;2023-04-15T11:07:32;5.45;;;2.55;;
23470;SDS011;11908;50.806;4.424;2023-04-15T11:09:58;4.10;;;2.42;;
23470;SDS011;11908;50.806;4.424;2023-04-15T11:12:32;4.57;;;2.13;;
23470;SDS011;11908;50.806;4.424;2023-04-15T11:14:59;5.40;;;2.42;;
23470;SDS011;11908;50.806;4.424;2023-04-15T11:18:16;3.47;;;2.53;;
23470;SDS011;11908;50.806;4.424;2023-04-15T11:20:53;3.50;;;2.75;;
23470;SDS011;11908;50.806;4.424;2023-04-15T11:23:39;2.95;;;2.20;;
23470;SDS011;11908;50.806;4.424;2023-04-15T11:26:12;3.45;;;1.45;;
23470;SDS011;11908;50.806;4.424;2023-04-15T11:28:39;3.10;;;2.15;;
23470;SDS011;11908;50.806;4.424;2023-04-15T11:33:34;3.65;;;2.63;;
23470;SDS011;11908;50.806;4.424;2023-04-15T11:36:00;5.82;;;3.30;;
23470;SDS011;11908;50.806;4.424;2023-04-15T11:38:28;3.33;;;2.90;;
23470;SDS011;11908;50.806;4.424;2023-04-15T11:40:53;4.57;;;3.42;;
23470;SDS011;11908;50.806;4.424;2023-04-15T11:43:20;3.58;;;3.08;;
23470;SDS011;11908;50.806;4.424;2023-04-15T11:45:48;2.85;;;2.38;;
23470;SDS011;11908;50.806;4.424;2023-04-15T11:48:18;3.95;;;2.58;;
23470;SDS011;11908;50.806;4.424;2023-04-15T11:50:51;3.88;;;2.47;;
23470;SDS011;11908;50.806;4.424;2023-04-15T11:53:22;5.05;;;2.42;;
23470;SDS011;11908;50.806;4.424;2023-04-15T11:55:49;3.45;;;2.53;;
23470;SDS011;11908;50.806;4.424;2023-04-15T11:58:20;4.45;;;3.08;;
23470;SDS011;11908;50.806;4.424;2023-04-15T12:00:54;6.55;;;2.92;;
23470;SDS011;11908;50.806;4.424;2023-04-15T12:03:25;4.53;;;2.95;;
23470;SDS011;11908;50.806;4.424;2023-04-15T12:06:33;3.85;;;2.75;;
23470;SDS011;11908;50.806;4.424;2023-04-15T12:11:46;4.13;;;2.50;;
23470;SDS011;11908;50.806;4.424;2023-04-15T12:14:24;4.82;;;2.47;;
23470;SDS011;11908;50.806;4.424;2023-04-15T12:17:04;3.08;;;2.50;;
23470;SDS011;11908;50.806;4.424;2023-04-15T12:19:35;4.03;;;2.58;;
23470;SDS011;11908;50.806;4.424;2023-04-15T12:22:10;2.72;;;2.45;;
23470;SDS011;11908;50.806;4.424;2023-04-15T12:24:37;4.38;;;3.35;;
23470;SDS011;11908;50.806;4.424;2023-04-15T12:27:07;5.75;;;2.50;;
23470;SDS011;11908;50.806;4.424;2023-04-15T12:29:34;6.85;;;2.38;;
23470;SDS011;11908;50.806;4.424;2023-04-15T12:34:33;2.90;;;2.50;;
23470;SDS011;11908;50.806;4.424;2023-04-15T12:37:01;4.32;;;3.13;;
23470;SDS011;11908;50.806;4.424;2023-04-15T12:39:35;4.57;;;2.80;;
23470;SDS011;11908;50.806;4.424;2023-04-15T12:42:02;9.95;;;2.53;;
23470;SDS011;11908;50.806;4.424;2023-04-15T12:44:29;4.45;;;2.15;;
23470;SDS011;11908;50.806;4.424;2023-04-15T12:46:55;3.45;;;2.10;;
23470;SDS011;11908;50.806;4.424;2023-04-15T12:49:21;3.25;;;2.45;;
23470;SDS011;11908;50.806;4.424;2023-04-15T12:51:48;6.38;;;2.95;;
23470;SDS011;11908;50.806;4.424;2023-04-15T12:54:15;3.17;;;2.15;;
23470;SDS011;11908;50.806;4.424;2023-04-15T12:56:41;3.20;;;2.15;;
23470;SDS011;11908;50.806;4.424;2023-04-15T12:59:08;5.28;;;2.58;;
23470;SDS011;11908;50.806;4.424;2023-04-15T13:01:33;3.55;;;2.70;;
23470;SDS011;11908;50.806;4.424;2023-04-15T13:04:00;4.30;;;2.17;;
23470;SDS011;11908;50.806;4.424;2023-04-15T13:06:25;3.30;;;2.40;;
23470;SDS011;11908;50.806;4.424;2023-04-15T13:08:53;3.33;;;1.80;;
23470;SDS011;11908;50.806;4.424;2023-04-15T13:11:19;3.08;;;2.15;;
23470;SDS011;11908;50.806;4.424;2023-04-15T13:13:46;3.65;;;2.55;;
23470;SDS011;11908;50.806;4.424;2023-04-15T13:16:12;3.70;;;2.20;;
23470;SDS011;11908;50.806;4.424;2023-04-15T13:18:38;3.17;;;1.90;;
23470;SDS011;11908;50.806;4.424;2023-04-15T13:21:04;3.88;;;1.92;;
23470;SDS011;11908;50.806;4.424;2023-04-15T13:23:31;6.45;;;2.20;;
23470;SDS011;11908;50.806;4.424;2023-04-15T13:25:57;6.78;;;2.17;;
23470;SDS011;11908;50.806;4.424;2023-04-15T13:28:23;2.85;;;2.20;;
23470;SDS011;11908;50.806;4.424;2023-04-15T13:30:49;3.55;;;2.35;;
23470;SDS011;11908;50.806;4.424;2023-04-15T13:33:15;4.25;;;2.13;;
23470;SDS011;11908;50.806;4.424;2023-04-15T13:35:41;3.67;;;2.13;;
23470;SDS011;11908;50.806;4.424;2023-04-15T13:38:07;4.40;;;2.55;;
23470;SDS011;11908;50.806;4.424;2023-04-15T13:40:33;3.65;;;2.22;;
23470;SDS011;11908;50.806;4.424;2023-04-15T13:42:58;5.63;;;2.78;;
23470;SDS011;11908;50.806;4.424;2023-04-15T13:45:24;5.53;;;2.92;;
23470;SDS011;11908;50.806;4.424;2023-04-15T13:47:50;5.22;;;2.70;;
23470;SDS011;11908;50.806;4.424;2023-04-15T13:50:17;4.13;;;2.88;;
23470;SDS011;11908;50.806;4.424;2023-04-15T13:52:42;4.38;;;2.80;;
23470;SDS011;11908;50.806;4.424;2023-04-15T13:55:08;4.25;;;2.70;;
23470;SDS011;11908;50.806;4.424;2023-04-15T13:57:34;7.07;;;2.40;;
23470;SDS011;11908;50.806;4.424;2023-04-15T14:00:00;7.43;;;2.40;;
23470;SDS011;11908;50.806;4.424;2023-04-15T14:02:28;6.78;;;2.40;;
23470;SDS011;11908;50.806;4.424;2023-04-15T14:04:54;5.47;;;2.70;;
23470;SDS011;11908;50.806;4.424;2023-04-15T14:07:21;3.50;;;2.08;;
23470;SDS011;11908;50.806;4.424;2023-04-15T14:09:47;4.13;;;1.77;;
23470;SDS011;11908;50.806;4.424;2023-04-15T14:12:13;4.82;;;1.83;;
23470;SDS011;11908;50.806;4.424;2023-04-15T14:14:39;6.05;;;1.80;;
23470;SDS011;11908;50.806;4.424;2023-04-15T14:17:05;2.97;;;1.70;;
23470;SDS011;11908;50.806;4.424;2023-04-15T14:19:31;6.85;;;2.30;;
23470;SDS011;11908;50.806;4.424;2023-04-15T14:21:57;5.65;;;2.65;;
23470;SDS011;11908;50.806;4.424;2023-04-15T14:24:23;4.47;;;2.00;;
23470;SDS011;11908;50.806;4.424;2023-04-15T14:26:49;7.25;;;2.58;;
23470;SDS011;11908;50.806;4.424;2023-04-15T14:29:14;6.35;;;2.28;;
23470;SDS011;11908;50.806;4.424;2023-04-15T14:31:40;6.47;;;2.47;;
23470;SDS011;11908;50.806;4.424;2023-04-15T14:34:08;4.40;;;2.08;;
23470;SDS011;11908;50.806;4.424;2023-04-15T14:36:34;3.67;;;1.58;;
23470;SDS011;11908;50.806;4.424;2023-04-15T14:39:00;2.42;;;1.17;;
23470;SDS011;11908;50.806;4.424;2023-04-15T14:41:25;2.78;;;1.55;;
23470;SDS011;11908;50.806;4.424;2023-04-15T14:43:51;3.38;;;0.95;;
23470;SDS011;11908;50.806;4.424;2023-04-15T14:46:17;2.92;;;1.02;;
23470;SDS011;11908;50.806;4.424;2023-04-15T14:48:42;2.80;;;0.90;;
23470;SDS011;11908;50.806;4.424;2023-04-15T14:51:08;1.98;;;0.88;;
23470;SDS011;11908;50.806;4.424;2023-04-15T14:53:34;1.42;;;0.95;;
23470;SDS011;11908;50.806;4.424;2023-04-15T14:55:59;4.75;;;1.10;;
23470;SDS011;11908;50.806;4.424;2023-04-15T14:58:25;4.07;;;0.98;;
23470;SDS011;11908;50.806;4.424;2023-04-15T15:00:51;3.15;;;1.30;;